Time;durP1;ratioP1;P1;durP2;ratioP2;P2;SDS_P1;SDS_P2;PMS_P1;PMS_P2;Temp;Humidity;BMP_temperature;BMP_pressure;BME280_temperature;BME280_humidity;BME280_pressure;Samples;Min_cycle;Max_cycle;Signal;HPM_P1;HPM_P2
2021/01/15 00:00:56;;;;;;;6.88;3.97;;;1.80;99.90;;;;;;5020008;28;20021;-44
2021/01/15 00:03:21;;;;;;;5.55;4.05;;;1.90;99.90;;;;;;5023167;28;20025;-44
2021/01/15 00:05:47;;;;;;;6.72;3.75;;;1.90;99.90;;;;;;5023854;28;20125;-43
2021/01/15 00:08:12;;;;;;;7.82;3.92;;;1.80;99.90;;;;;;5023696;28;20032;-42
2021/01/15 00:10:38;;;;;;;7.90;4.32;;;1.90;99.90;;;;;;5026055;28;20029;-43
2021/01/15 00:13:03;;;;;;;7.70;3.65;;;1.80;99.90;;;;;;5023940;28;20037;-43
2021/01/15 00:15:29;;;;;;;7.22;3.97;;;1.90;99.90;;;;;;5033100;28;20037;-44
2021/01/15 00:17:54;;;;;;;8.98;4.00;;;1.90;99.90;;;;;;5028682;28;20044;-44
2021/01/15 00:20:20;;;;;;;6.88;4.15;;;1.90;99.90;;;;;;5032806;28;20052;-44
2021/01/15 00:22:45;;;;;;;9.98;3.88;;;1.90;99.90;;;;;;5017381;28;20021;-42
2021/01/15 00:25:11;;;;;;;7.35;3.95;;;1.90;99.90;;;;;;5024534;28;20033;-43
2021/01/15 00:27:40;;;;;;;7.00;3.70;;;1.90;99.90;;;;;;5026946;28;20033;-42
2021/01/15 00:30:08;;;;;;;7.97;3.78;;;1.90;99.90;;;;;;5031060;28;20437;-42
2021/01/15 00:32:34;;;;;;;9.00;4.35;;;1.90;99.90;;;;;;5022107;28;20083;-41
2021/01/15 00:35:00;;;;;;;10.27;4.45;;;1.90;99.90;;;;;;5028269;28;20120;-43
2021/01/15 00:37:25;;;;;;;11.77;4.55;;;1.90;99.90;;;;;;5021597;28;20625;-43
2021/01/15 00:39:51;;;;;;;7.53;3.88;;;1.90;99.90;;;;;;5024246;28;20512;-45
2021/01/15 00:42:16;;;;;;;5.68;3.45;;;1.90;99.90;;;;;;5039935;28;20129;-43
2021/01/15 00:44:45;;;;;;;7.28;3.50;;;1.90;99.90;;;;;;5025079;28;20377;-42
2021/01/15 00:47:11;;;;;;;8.80;4.18;;;1.90;99.90;;;;;;5026184;28;20426;-44
2021/01/15 00:49:37;;;;;;;6.30;3.92;;;1.90;99.90;;;;;;5028092;28;20026;-43
2021/01/15 00:52:02;;;;;;;6.40;3.55;;;1.90;99.90;;;;;;5024005;28;20056;-41
2021/01/15 00:54:28;;;;;;;7.03;4.05;;;1.80;99.90;;;;;;5022766;28;20033;-43
2021/01/15 00:57:01;;;;;;;8.80;4.20;;;1.70;99.90;;;;;;5028842;28;20037;-43
2021/01/15 00:59:27;;;;;;;8.27;4.18;;;1.70;99.90;;;;;;5026445;28;20030;-43
2021/01/15 01:01:52;;;;;;;8.50;3.78;;;1.70;99.90;;;;;;5031642;28;20044;-47
2021/01/15 01:04:18;;;;;;;8.50;4.50;;;1.60;99.90;;;;;;5031755;28;20029;-42
2021/01/15 01:06:43;;;;;;;8.02;4.55;;;1.50;99.90;;;;;;5030073;28;20038;-43
2021/01/15 01:09:09;;;;;;;7.80;4.25;;;1.40;99.90;;;;;;5032211;28;20033;-44
2021/01/15 01:11:35;;;;;;;9.45;5.07;;;1.40;99.90;;;;;;5030044;28;20435;-41
2021/01/15 01:14:03;;;;;;;9.15;4.22;;;1.40;99.90;;;;;;5033353;28;20030;-40
2021/01/15 01:16:29;;;;;;;10.15;4.70;;;1.30;99.90;;;;;;5032203;28;20029;-47
2021/01/15 01:18:55;;;;;;;7.60;4.35;;;1.30;99.90;;;;;;5032512;28;20026;-43
2021/01/15 01:21:21;;;;;;;7.18;4.57;;;1.30;99.90;;;;;;5032534;28;20030;-43
2021/01/15 01:23:47;;;;;;;7.20;3.95;;;1.30;99.90;;;;;;5027508;28;20353;-44
2021/01/15 01:26:13;;;;;;;9.85;3.95;;;1.30;99.90;;;;;;5025496;28;20040;-43
2021/01/15 01:28:42;;;;;;;9.73;4.72;;;1.40;99.90;;;;;;5030068;28;20044;-43
2021/01/15 01:31:12;;;;;;;5.07;3.00;;;1.40;99.90;;;;;;5034594;28;20033;-45
2021/01/15 01:33:39;;;;;;;5.82;3.45;;;1.40;99.90;;;;;;5032441;28;20156;-42
2021/01/15 01:36:05;;;;;;;10.43;4.47;;;1.40;99.90;;;;;;5031946;28;20034;-43
2021/01/15 01:38:31;;;;;;;9.23;3.95;;;1.50;99.90;;;;;;5035228;28;20067;-42
2021/01/15 01:40:57;;;;;;;8.77;4.05;;;1.50;99.90;;;;;;5035945;28;20061;-43
2021/01/15 01:43:23;;;;;;;7.82;3.55;;;1.50;99.90;;;;;;5030298;28;20029;-43
2021/01/15 01:45:48;;;;;;;8.65;4.03;;;1.40;99.90;;;;;;5036028;28;20192;-45
2021/01/15 01:48:15;;;;;;;7.13;3.50;;;1.40;99.90;;;;;;5030771;28;20087;-42
2021/01/15 01:50:41;;;;;;;7.63;3.88;;;1.30;99.90;;;;;;5035505;28;20056;-43
2021/01/15 01:53:10;;;;;;;7.03;3.70;;;1.20;99.90;;;;;;5035166;28;20092;-44
2021/01/15 01:55:37;;;;;;;6.22;3.38;;;1.20;99.90;;;;;;5036940;28;20082;-43
2021/01/15 01:58:03;;;;;;;6.70;3.42;;;1.10;99.90;;;;;;5033137;28;20511;-41
2021/01/15 02:00:28;;;;;;;6.70;3.85;;;1.10;99.90;;;;;;5031012;28;20021;-43
2021/01/15 02:02:54;;;;;;;8.35;4.15;;;1.10;99.90;;;;;;5047209;28;20041;-43
2021/01/15 02:05:19;;;;;;;10.45;3.97;;;1.10;99.90;;;;;;5036149;28;20067;-41
2021/01/15 02:07:45;;;;;;;7.95;3.50;;;1.10;99.90;;;;;;5030277;28;20061;-45
2021/01/15 02:10:25;;;;;;;8.25;3.60;;;1.10;99.90;;;;;;5031825;28;20473;-41
2021/01/15 02:13:14;;;;;;;6.78;3.35;;;1.10;99.90;;;;;;5032298;28;20037;-42
2021/01/15 02:16:01;;;;;;;7.63;3.58;;;1.20;99.90;;;;;;5031587;28;20045;-43
2021/01/15 02:18:34;;;;;;;8.80;3.90;;;1.20;99.90;;;;;;5036961;28;20030;-43
2021/01/15 02:21:37;;;;;;;6.95;4.22;;;1.30;99.90;;;;;;5026318;28;20038;-41
2021/01/15 02:24:26;;;;;;;6.20;3.67;;;1.30;99.90;;;;;;5027645;28;20030;-43
2021/01/15 02:27:16;;;;;;;8.07;3.55;;;1.40;99.90;;;;;;5031350;28;20034;-43
2021/01/15 02:30:05;;;;;;;7.70;4.85;;;1.40;99.90;;;;;;5029035;28;20029;-43
2021/01/15 02:33:02;;;;;;;6.80;3.72;;;1.30;99.90;;;;;;5031403;28;20037;-43
2021/01/15 02:35:34;;;;;;;;;;;1.40;99.90;;;;;;5030018;28;20037;-45
2021/01/15 02:38:19;;;;;;;6.78;3.55;;;1.30;99.90;;;;;;5024097;28;19921;-41
2021/01/15 02:41:08;;;;;;;6.80;3.80;;;1.40;99.90;;;;;;5026782;28;20018;-44
2021/01/15 02:43:35;;;;;;;7.18;3.92;;;1.40;99.90;;;;;;5021588;28;20473;-43
2021/01/15 02:46:04;;;;;;;7.22;3.15;;;1.40;99.90;;;;;;5030096;28;20067;-45
2021/01/15 02:48:33;;;;;;;7.35;3.60;;;1.40;99.90;;;;;;5027353;28;20038;-44
2021/01/15 02:50:59;;;;;;;9.32;4.68;;;1.40;99.90;;;;;;5031382;28;20053;-41
2021/01/15 02:53:25;;;;;;;7.13;3.63;;;1.40;99.90;;;;;;5030307;28;20142;-45
2021/01/15 02:55:50;;;;;;;9.05;4.60;;;1.40;99.90;;;;;;5023958;28;20037;-41
2021/01/15 02:58:16;;;;;;;7.82;4.13;;;1.40;99.90;;;;;;5033219;28;20033;-43
2021/01/15 03:00:41;;;;;;;7.13;3.85;;;1.40;99.90;;;;;;5032818;28;20076;-41
2021/01/15 03:03:30;;;;;;;6.63;4.10;;;1.40;99.90;;;;;;5031053;28;20045;-45
2021/01/15 03:06:15;;;;;;;6.80;3.95;;;1.40;99.90;;;;;;5030698;28;20061;-43
2021/01/15 03:08:45;;;;;;;7.25;3.97;;;1.40;99.90;;;;;;5022744;28;20029;-43
2021/01/15 03:11:11;;;;;;;10.63;3.75;;;1.40;99.90;;;;;;5032267;28;20061;-43
2021/01/15 03:13:37;;;;;;;6.15;4.10;;;1.30;99.90;;;;;;5032165;28;20049;-41
2021/01/15 03:16:04;;;;;;;10.00;3.75;;;1.30;99.90;;;;;;5024028;28;20374;-44
2021/01/15 03:18:34;;;;;;;6.47;3.40;;;1.40;99.90;;;;;;5031047;28;20108;-40
2021/01/15 03:21:01;;;;;;;7.75;3.78;;;1.30;99.90;;;;;;5029592;28;20030;-44
2021/01/15 03:23:27;;;;;;;6.57;3.75;;;1.30;99.90;;;;;;5027211;28;20048;-43
2021/01/15 03:25:53;;;;;;;7.28;3.75;;;1.30;99.90;;;;;;5032476;28;20060;-43
2021/01/15 03:28:19;;;;;;;6.38;3.60;;;1.30;99.90;;;;;;5032466;28;20056;-46
2021/01/15 03:30:44;;;;;;;7.18;3.20;;;1.30;99.90;;;;;;5026909;28;20037;-41
2021/01/15 03:33:09;;;;;;;6.03;3.63;;;1.30;99.90;;;;;;5031045;28;20033;-46
2021/01/15 03:35:35;;;;;;;7.43;4.00;;;1.30;99.90;;;;;;5027545;28;20071;-40
2021/01/15 03:38:04;;;;;;;6.38;3.92;;;1.30;99.90;;;;;;5022895;28;20034;-43
2021/01/15 03:40:35;;;;;;;6.13;3.40;;;1.30;99.90;;;;;;5028758;28;20480;-41
2021/01/15 03:43:09;;;;;;;6.35;2.97;;;1.20;99.90;;;;;;5031118;28;20037;-47
2021/01/15 03:45:35;;;;;;;6.90;3.65;;;1.20;99.90;;;;;;5030876;28;20041;-43
2021/01/15 03:48:00;;;;;;;7.35;4.30;;;1.20;99.90;;;;;;5025978;28;20446;-48
2021/01/15 03:50:26;;;;;;;5.75;3.85;;;1.10;99.90;;;;;;5029203;28;20037;-46
2021/01/15 03:52:51;;;;;;;7.78;4.60;;;1.10;99.90;;;;;;5026289;28;20060;-43
2021/01/15 03:55:17;;;;;;;8.45;4.38;;;1.10;99.90;;;;;;5030831;28;20129;-44
2021/01/15 03:57:44;;;;;;;7.75;3.50;;;1.10;99.90;;;;;;5025836;28;20044;-45
2021/01/15 04:00:11;;;;;;;5.88;3.85;;;1.00;99.90;;;;;;5030897;28;20029;-43
2021/01/15 04:02:36;;;;;;;10.52;4.65;;;1.00;99.90;;;;;;5030158;28;20452;-43
2021/01/15 04:05:02;;;;;;;9.15;4.45;;;1.00;99.90;;;;;;5023184;28;20064;-44
2021/01/15 04:07:29;;;;;;;11.02;4.75;;;1.00;99.90;;;;;;5030114;28;20040;-41
2021/01/15 04:09:55;;;;;;;8.82;4.38;;;1.00;99.90;;;;;;5024896;28;20068;-44
2021/01/15 04:12:21;;;;;;;8.70;4.15;;;1.00;99.90;;;;;;5029689;28;20099;-42
2021/01/15 04:14:46;;;;;;;9.48;4.75;;;1.00;99.90;;;;;;5026263;28;20625;-43
2021/01/15 04:17:12;;;;;;;7.07;3.78;;;1.00;99.90;;;;;;5028868;28;20477;-41
2021/01/15 04:19:37;;;;;;;6.45;3.72;;;1.00;99.90;;;;;;5030764;28;20025;-41
2021/01/15 04:22:03;;;;;;;10.90;4.97;;;1.10;99.90;;;;;;5023370;28;20030;-44
2021/01/15 04:24:28;;;;;;;11.25;4.03;;;1.10;99.90;;;;;;5030093;28;20608;-43
2021/01/15 04:26:55;;;;;;;6.43;4.00;;;1.10;99.90;;;;;;5031029;28;20040;-45
2021/01/15 04:29:21;;;;;;;7.25;4.10;;;1.10;99.90;;;;;;5035345;28;20036;-42
2021/01/15 04:31:47;;;;;;;8.07;4.30;;;1.20;99.90;;;;;;5031275;28;20528;-41
2021/01/15 04:34:13;;;;;;;6.68;3.88;;;1.20;99.90;;;;;;5030711;28;20033;-41
2021/01/15 04:36:38;;;;;;;8.18;4.13;;;1.20;99.90;;;;;;5022600;28;20036;-43
2021/01/15 04:39:05;;;;;;;7.65;4.03;;;1.30;99.90;;;;;;5026384;28;20469;-42
2021/01/15 04:41:31;;;;;;;7.68;4.57;;;1.30;99.90;;;;;;5027869;28;20029;-41
2021/01/15 04:43:57;;;;;;;12.52;4.80;;;1.30;99.90;;;;;;5030562;28;20033;-43
2021/01/15 04:46:23;;;;;;;10.63;4.28;;;1.30;99.90;;;;;;5028851;28;20104;-42
2021/01/15 04:48:50;;;;;;;7.72;3.83;;;1.30;99.90;;;;;;5025996;28;20052;-45
2021/01/15 04:51:20;;;;;;;8.80;4.43;;;1.30;99.90;;;;;;5028185;28;20385;-41
2021/01/15 04:53:59;;;;;;;7.55;4.63;;;1.30;99.90;;;;;;5028205;28;20033;-41
2021/01/15 04:56:35;;;;;;;7.10;4.25;;;1.30;99.90;;;;;;5029522;28;20040;-43
2021/01/15 04:59:03;;;;;;;6.03;3.17;;;1.30;99.90;;;;;;5030614;28;20124;-41
2021/01/15 05:01:45;;;;;;;7.68;4.43;;;1.30;99.90;;;;;;5028034;28;20033;-42
2021/01/15 05:04:17;;;;;;;7.93;4.13;;;1.30;99.90;;;;;;5019129;28;20047;-44
2021/01/15 05:06:50;;;;;;;11.73;5.47;;;1.30;99.90;;;;;;5039469;28;20423;-40
2021/01/15 05:09:18;;;;;;;8.25;4.43;;;1.30;99.90;;;;;;5027564;28;20017;-43
2021/01/15 05:11:47;;;;;;;9.35;4.65;;;1.30;99.90;;;;;;5029333;28;20105;-43
2021/01/15 05:14:17;;;;;;;8.43;4.25;;;1.30;99.90;;;;;;5028657;28;20034;-43
2021/01/15 05:16:45;;;;;;;7.22;4.65;;;1.30;99.90;;;;;;5021485;28;20025;-50
2021/01/15 05:19:12;;;;;;;7.90;4.75;;;1.30;99.90;;;;;;5037408;28;20025;-43
2021/01/15 05:21:39;;;;;;;9.02;4.65;;;1.30;99.90;;;;;;5026481;28;20017;-42
2021/01/15 05:24:06;;;;;;;8.13;4.45;;;1.30;99.90;;;;;;5021579;28;20021;-42
2021/01/15 05:26:36;;;;;;;8.38;4.43;;;1.30;99.90;;;;;;5030901;28;20025;-44
2021/01/15 05:29:04;;;;;;;8.25;4.10;;;1.20;99.90;;;;;;5025439;28;20037;-44
2021/01/15 05:31:46;;;;;;;11.77;5.45;;;1.20;99.90;;;;;;5021802;28;20036;-44
2021/01/15 05:34:11;;;;;;;11.60;5.68;;;1.20;99.90;;;;;;5024843;28;20384;-43
2021/01/15 05:36:37;;;;;;;9.88;4.57;;;1.30;99.90;;;;;;5023851;28;20036;-46
2021/01/15 05:39:23;;;;;;;7.18;4.15;;;1.20;99.90;;;;;;5024666;28;20052;-43
2021/01/15 05:42:01;;;;;;;6.28;3.95;;;1.20;99.90;;;;;;5023491;28;20049;-43
2021/01/15 05:44:31;;;;;;;8.32;4.03;;;1.20;99.90;;;;;;5022579;28;20112;-41
2021/01/15 05:47:01;;;;;;;9.32;4.97;;;1.20;99.90;;;;;;5030913;28;20021;-44
2021/01/15 05:49:27;;;;;;;8.35;4.60;;;1.20;99.90;;;;;;5023590;28;20457;-42
2021/01/15 05:51:53;;;;;;;9.07;4.40;;;1.20;99.90;;;;;;5031358;28;20045;-43
2021/01/15 05:54:33;;;;;;;7.97;4.82;;;1.20;99.90;;;;;;5034095;28;20029;-42
2021/01/15 05:57:00;;;;;;;9.18;4.68;;;1.20;99.90;;;;;;5032737;28;20061;-43
2021/01/15 05:59:26;;;;;;;8.40;4.35;;;1.20;99.90;;;;;;5024593;28;20385;-41
2021/01/15 06:01:59;;;;;;;8.75;3.83;;;1.10;99.90;;;;;;5047029;28;20427;-42
2021/01/15 06:04:32;;;;;;;7.78;4.30;;;1.10;99.90;;;;;;5034521;28;20419;-45
2021/01/15 06:07:00;;;;;;;6.63;3.65;;;1.10;99.90;;;;;;5027833;28;20577;-45
2021/01/15 06:09:25;;;;;;;7.47;4.05;;;1.10;99.90;;;;;;5028851;28;20078;-45
2021/01/15 06:11:52;;;;;;;8.00;4.50;;;1.10;99.90;;;;;;5034068;28;20104;-43
2021/01/15 06:14:29;;;;;;;7.60;4.30;;;1.10;99.90;;;;;;5032291;28;20025;-44
2021/01/15 06:17:05;;;;;;;8.70;4.47;;;1.10;99.90;;;;;;5026017;28;20033;-45
2021/01/15 06:19:54;;;;;;;8.48;4.50;;;1.10;99.90;;;;;;5031078;28;20075;-44
2021/01/15 06:22:37;;;;;;;6.80;4.45;;;1.10;99.90;;;;;;5022438;28;20030;-41
2021/01/15 06:25:31;;;;;;;6.18;4.57;;;1.10;99.90;;;;;;5026378;28;20499;-41
2021/01/15 06:27:59;;;;;;;7.95;3.90;;;1.00;99.90;;;;;;5025087;28;20038;-41
2021/01/15 06:30:26;;;;;;;7.75;4.55;;;1.00;99.90;;;;;;5032334;28;20029;-43
2021/01/15 06:32:54;;;;;;;9.13;4.72;;;1.00;99.90;;;;;;5028959;28;20036;-40
2021/01/15 06:35:27;;;;;;;7.18;3.95;;;0.90;99.90;;;;;;5025911;28;20496;-46
2021/01/15 06:38:08;;;;;;;9.27;4.97;;;0.90;99.90;;;;;;5024470;28;20057;-41
2021/01/15 06:40:41;;;;;;;7.05;3.95;;;0.90;99.90;;;;;;5028199;28;20029;-43
2021/01/15 06:43:09;;;;;;;6.15;3.78;;;0.90;99.90;;;;;;5028739;28;20473;-44
2021/01/15 06:45:38;;;;;;;5.20;3.50;;;0.90;99.90;;;;;;5029111;28;20472;-41
2021/01/15 06:48:12;;;;;;;7.40;3.28;;;0.90;99.90;;;;;;5030663;28;20109;-41
2021/01/15 06:50:43;;;;;;;6.97;3.95;;;0.90;99.90;;;;;;5023928;28;20040;-43
2021/01/15 06:53:17;;;;;;;7.45;4.47;;;0.90;99.90;;;;;;5029373;28;20046;-40
2021/01/15 06:55:52;;;;;;;8.02;3.78;;;0.90;99.90;;;;;;5029304;28;20033;-43
2021/01/15 06:58:41;;;;;;;7.45;4.28;;;0.90;99.90;;;;;;5027967;28;20026;-41
2021/01/15 07:01:31;;;;;;;8.85;5.22;;;0.90;99.90;;;;;;5035429;28;20026;-41
2021/01/15 07:04:16;;;;;;;7.70;3.65;;;1.00;99.90;;;;;;5020719;28;20029;-40
2021/01/15 07:07:02;;;;;;;8.82;4.00;;;0.90;99.90;;;;;;5027633;28;20022;-41
2021/01/15 07:09:29;;;;;;;6.45;3.72;;;1.00;99.90;;;;;;5030318;28;20025;-41
2021/01/15 07:11:55;;;;;;;8.13;3.95;;;1.00;99.90;;;;;;5026317;28;20039;-41
2021/01/15 07:14:27;;;;;;;7.10;4.03;;;1.00;99.90;;;;;;5029062;28;20108;-41
2021/01/15 07:17:01;;;;;;;6.00;3.85;;;1.00;99.90;;;;;;5030043;28;20514;-43
2021/01/15 07:19:35;;;;;;;7.18;4.47;;;1.00;99.90;;;;;;5024817;28;20397;-41
2021/01/15 07:22:00;;;;;;;5.57;3.58;;;1.00;99.90;;;;;;5033043;28;20017;-43
2021/01/15 07:24:37;;;;;;;4.53;3.15;;;1.00;99.90;;;;;;5028055;28;20127;-43
2021/01/15 07:27:04;;;;;;;;;;;1.00;99.90;;;;;;5027702;28;20022;-41
2021/01/15 07:29:34;;;;;;;7.07;4.38;;;1.00;99.90;;;;;;5030851;28;20351;-40
2021/01/15 07:32:24;;;;;;;9.32;4.38;;;1.00;99.90;;;;;;5027098;28;20455;-44
2021/01/15 07:34:53;;;;;;;6.45;4.03;;;1.10;99.90;;;;;;5021750;28;20045;-43
2021/01/15 07:37:25;;;;;;;9.30;4.25;;;1.10;99.90;;;;;;4988374;28;20496;-44
2021/01/15 07:39:59;;;;;;;7.85;4.28;;;1.10;99.90;;;;;;4988852;28;20045;-42
2021/01/15 07:42:48;;;;;;;8.80;4.38;;;1.20;99.90;;;;;;4989115;28;20054;-43
2021/01/15 07:45:25;;;;;;;7.88;3.95;;;1.20;99.90;;;;;;4980544;28;20034;-40
2021/01/15 07:47:52;;;;;;;9.40;4.88;;;1.20;99.90;;;;;;4989114;28;20050;-41
2021/01/15 07:50:28;;;;;;;10.20;5.28;;;1.20;99.90;;;;;;4992699;28;20072;-41
2021/01/15 07:53:26;;;;;;;10.45;5.30;;;1.20;99.90;;;;;;4984967;28;20050;-41
2021/01/15 07:55:59;;;;;;;10.32;5.45;;;1.30;99.90;;;;;;4979440;28;20046;-43
2021/01/15 07:58:38;;;;;;;9.82;5.60;;;1.30;99.90;;;;;;4985122;28;20406;-42
2021/01/15 08:01:08;;;;;;;8.18;5.20;;;1.30;99.90;;;;;;4984017;28;20105;-42
2021/01/15 08:04:01;;;;;;;8.27;5.22;;;1.20;99.90;;;;;;4987358;28;20449;-42
2021/01/15 08:06:26;;;;;;;7.45;4.80;;;1.20;99.90;;;;;;4984027;28;20030;-42
2021/01/15 08:09:02;;;;;;;6.25;4.07;;;1.20;99.90;;;;;;5013970;28;20045;-42
2021/01/15 08:11:32;;;;;;;8.35;4.50;;;1.20;99.90;;;;;;5030182;28;20026;-45
2021/01/15 08:14:15;;;;;;;7.40;4.25;;;1.20;99.90;;;;;;5023259;28;20060;-42
2021/01/15 08:16:45;;;;;;;8.20;4.38;;;1.20;99.90;;;;;;5028695;28;20047;-43
2021/01/15 08:19:12;;;;;;;9.93;4.63;;;1.20;99.90;;;;;;5025059;28;20159;-42
2021/01/15 08:21:41;;;;;;;8.65;4.43;;;1.20;99.90;;;;;;5022579;28;20517;-43
2021/01/15 08:24:07;;;;;;;6.07;3.80;;;1.20;99.90;;;;;;5028915;28;20025;-42
2021/01/15 08:26:47;;;;;;;7.53;4.20;;;1.30;99.90;;;;;;5025144;28;20017;-42
2021/01/15 08:29:13;;;;;;;5.90;3.63;;;1.30;99.90;;;;;;5027275;28;20021;-44
2021/01/15 08:31:39;;;;;;;6.65;3.50;;;1.30;99.90;;;;;;5029543;28;20044;-47
2021/01/15 08:34:09;;;;;;;9.20;4.57;;;1.30;99.90;;;;;;5027143;28;20037;-44
2021/01/15 08:36:47;;;;;;;7.50;4.55;;;1.30;99.90;;;;;;5021750;28;20108;-42
2021/01/15 08:39:12;;;;;;;6.15;3.30;;;1.30;99.90;;;;;;5041604;28;20057;-42
2021/01/15 08:41:39;;;;;;;7.40;3.92;;;1.30;99.90;;;;;;5027070;28;20053;-44
2021/01/15 08:44:05;;;;;;;6.38;3.78;;;1.30;99.90;;;;;;5023373;28;20384;-45
2021/01/15 08:46:33;;;;;;;6.75;4.18;;;1.30;99.90;;;;;;5028702;28;20026;-47
2021/01/15 08:48:59;;;;;;;5.63;3.42;;;1.40;99.90;;;;;;5027049;28;20025;-42
2021/01/15 08:51:25;;;;;;;7.30;3.58;;;1.40;99.90;;;;;;5027153;28;20022;-43
2021/01/15 08:54:04;;;;;;;9.10;4.18;;;1.40;99.90;;;;;;5030418;28;20040;-45
2021/01/15 08:56:44;;;;;;;8.10;4.60;;;1.40;99.90;;;;;;5030396;28;20511;-42
2021/01/15 08:59:25;;;;;;;7.00;4.35;;;1.30;99.90;;;;;;5028475;28;20492;-46
2021/01/15 09:01:56;;;;;;;6.65;4.00;;;1.30;99.90;;;;;;5027945;28;20041;-44
2021/01/15 09:04:26;;;;;;;6.57;4.18;;;1.30;99.90;;;;;;5030213;28;20061;-45
2021/01/15 09:06:53;;;;;;;9.02;4.30;;;1.30;99.90;;;;;;5025390;28;20029;-42
2021/01/15 09:09:21;;;;;;;8.77;4.13;;;1.30;99.90;;;;;;5030053;28;20025;-45
2021/01/15 09:11:52;;;;;;;6.68;4.30;;;1.30;99.90;;;;;;5029434;28;20026;-47
2021/01/15 09:14:22;;;;;;;7.53;3.88;;;1.30;99.90;;;;;;5027830;28;20345;-46
2021/01/15 09:16:49;;;;;;;9.85;4.20;;;1.20;99.90;;;;;;5029049;28;20051;-44
2021/01/15 09:19:15;;;;;;;6.70;4.10;;;1.20;99.90;;;;;;5028365;28;20508;-45
2021/01/15 09:22:04;;;;;;;7.05;3.70;;;1.20;99.90;;;;;;5027795;28;20029;-48
2021/01/15 09:24:31;;;;;;;6.13;3.47;;;1.10;99.90;;;;;;5030561;28;20030;-44
2021/01/15 09:26:57;;;;;;;5.28;3.63;;;1.10;99.90;;;;;;5030540;28;20052;-45
2021/01/15 09:29:23;;;;;;;5.32;3.50;;;1.10;99.90;;;;;;5035831;28;20384;-43
2021/01/15 09:31:49;;;;;;;7.97;3.70;;;1.20;99.90;;;;;;5023154;28;20036;-44
2021/01/15 09:34:15;;;;;;;5.65;3.65;;;1.30;99.90;;;;;;5033578;28;20041;-42
2021/01/15 09:36:42;;;;;;;7.22;4.50;;;1.30;99.90;;;;;;5029622;28;20374;-44
2021/01/15 09:39:09;;;;;;;7.60;4.28;;;1.40;99.90;;;;;;5024804;28;20036;-42
2021/01/15 09:41:35;;;;;;;8.25;4.20;;;1.50;99.90;;;;;;5028508;28;20527;-46
2021/01/15 09:44:00;;;;;;;7.93;3.80;;;1.60;99.90;;;;;;5032286;28;20041;-45
2021/01/15 09:46:27;;;;;;;7.05;4.07;;;1.70;99.90;;;;;;5032873;28;20377;-43
2021/01/15 09:48:55;;;;;;;6.43;3.83;;;1.90;99.90;;;;;;5023939;28;20049;-45
2021/01/15 09:51:23;;;;;;;6.45;4.40;;;2.00;99.90;;;;;;5027128;28;20025;-42
2021/01/15 09:53:48;;;;;;;7.30;4.55;;;2.10;99.90;;;;;;5032539;28;20091;-45
2021/01/15 09:56:34;;;;;;;9.05;4.88;;;2.20;99.90;;;;;;5031705;28;20025;-44
2021/01/15 09:59:02;;;;;;;6.32;4.13;;;2.10;99.90;;;;;;5029754;28;20084;-44
2021/01/15 10:01:30;;;;;;;8.60;5.00;;;2.00;99.90;;;;;;5030411;28;20079;-47
2021/01/15 10:03:57;;;;;;;7.00;4.72;;;1.90;99.90;;;;;;5020898;28;20022;-45
2021/01/15 10:06:23;;;;;;;6.63;3.95;;;2.00;99.90;;;;;;5026736;28;20484;-46
2021/01/15 10:08:49;;;;;;;8.23;5.15;;;2.00;99.90;;;;;;5030278;28;20037;-46
2021/01/15 10:11:20;;;;;;;8.82;5.22;;;2.30;99.90;;;;;;5028665;28;20026;-44
2021/01/15 10:13:46;;;;;;;7.50;4.25;;;2.30;99.90;;;;;;5029970;28;20076;-42
2021/01/15 10:16:11;;;;;;;8.55;4.47;;;2.30;99.90;;;;;;5028931;28;20061;-43
2021/01/15 10:18:38;;;;;;;7.28;4.43;;;2.50;99.90;;;;;;5028598;28;20076;-45
2021/01/15 10:21:03;;;;;;;8.48;4.75;;;2.90;99.90;;;;;;5030079;28;20026;-43
2021/01/15 10:23:29;;;;;;;7.22;4.18;;;2.90;99.90;;;;;;5031584;28;20443;-47
2021/01/15 10:25:54;;;;;;;5.38;3.90;;;2.70;99.90;;;;;;5029779;28;20397;-44
2021/01/15 10:28:21;;;;;;;6.68;4.32;;;2.60;99.90;;;;;;5034008;28;20061;-44
2021/01/15 10:30:47;;;;;;;7.15;3.97;;;2.50;99.90;;;;;;5030353;28;20401;-43
2021/01/15 10:33:13;;;;;;;9.30;5.00;;;2.60;99.90;;;;;;5029832;28;20033;-42
2021/01/15 10:35:39;;;;;;;5.82;4.13;;;2.70;99.90;;;;;;5032580;28;20108;-45
2021/01/15 10:38:05;;;;;;;6.93;3.88;;;2.90;99.90;;;;;;5025621;28;20417;-45
2021/01/15 10:40:31;;;;;;;7.43;5.13;;;3.10;99.90;;;;;;5024092;28;20037;-46
2021/01/15 10:42:56;;;;;;;7.35;4.55;;;3.10;99.90;;;;;;5026886;28;20025;-43
2021/01/15 10:45:22;;;;;;;7.22;4.80;;;3.00;99.90;;;;;;5032023;28;20018;-46
2021/01/15 10:47:47;;;;;;;6.32;4.28;;;2.90;99.90;;;;;;5027554;28;20541;-43
2021/01/15 10:50:14;;;;;;;8.10;4.80;;;2.80;99.90;;;;;;5026575;28;20031;-42
2021/01/15 10:52:40;;;;;;;7.93;4.72;;;2.70;99.90;;;;;;5030873;28;20504;-45
2021/01/15 10:55:06;;;;;;;6.80;4.53;;;2.60;99.10;;;;;;5024842;28;20100;-44
2021/01/15 10:57:31;;;;;;;6.78;4.10;;;2.50;99.90;;;;;;5032710;28;20036;-43
2021/01/15 10:59:57;;;;;;;5.70;3.75;;;2.40;99.90;;;;;;5022373;28;20029;-44
2021/01/15 11:02:22;;;;;;;6.93;4.00;;;2.40;99.90;;;;;;5024045;28;20026;-45
2021/01/15 11:04:48;;;;;;;7.38;4.38;;;2.40;99.90;;;;;;5028712;28;20029;-45
2021/01/15 11:07:14;;;;;;;7.03;4.72;;;2.30;99.90;;;;;;5030759;28;20033;-43
2021/01/15 11:09:39;;;;;;;10.65;6.25;;;2.20;99.90;;;;;;5030999;28;20509;-43
2021/01/15 11:12:06;;;;;;;7.63;4.55;;;2.10;99.90;;;;;;5042052;28;20036;-47
2021/01/15 11:14:31;;;;;;;7.70;5.13;;;2.00;99.90;;;;;;5024561;28;20033;-42
2021/01/15 11:16:57;;;;;;;7.65;4.68;;;1.90;99.90;;;;;;5025446;28;20037;-43
2021/01/15 11:19:23;;;;;;;8.10;4.68;;;1.90;99.90;;;;;;5023327;28;20053;-45
2021/01/15 11:21:50;;;;;;;7.80;4.55;;;1.90;99.90;;;;;;5043886;28;20029;-44
2021/01/15 11:24:16;;;;;;;7.28;4.60;;;1.90;99.90;;;;;;5025690;28;20037;-42
2021/01/15 11:26:42;;;;;;;8.43;5.03;;;1.90;99.90;;;;;;5024291;28;20533;-43
2021/01/15 11:29:09;;;;;;;7.00;4.38;;;1.80;99.90;;;;;;5027021;28;20089;-45
2021/01/15 11:31:35;;;;;;;7.60;4.20;;;1.90;99.90;;;;;;5021514;28;20382;-42
2021/01/15 11:34:01;;;;;;;8.30;4.40;;;1.80;99.90;;;;;;5022614;28;20029;-45
2021/01/15 11:36:32;;;;;;;9.73;5.07;;;1.80;99.90;;;;;;5027431;28;20028;-42
2021/01/15 11:39:06;;;;;;;5.68;4.18;;;1.80;99.90;;;;;;5022015;28;20033;-44
2021/01/15 11:41:32;;;;;;;9.90;5.32;;;1.70;99.90;;;;;;5021099;28;20021;-44
2021/01/15 11:43:57;;;;;;;9.38;6.38;;;1.70;99.90;;;;;;5025525;28;20497;-44
2021/01/15 11:46:22;;;;;;;7.88;4.78;;;1.70;99.90;;;;;;5019658;28;20033;-44
2021/01/15 11:48:49;;;;;;;6.10;4.05;;;1.70;99.90;;;;;;5024643;28;20064;-45
2021/01/15 11:51:14;;;;;;;7.22;4.45;;;1.70;99.90;;;;;;5024842;28;20065;-45
2021/01/15 11:53:40;;;;;;;6.93;4.82;;;1.70;99.90;;;;;;5024325;28;20060;-47
2021/01/15 11:56:07;;;;;;;8.07;4.82;;;1.70;99.90;;;;;;5018928;28;20124;-44
2021/01/15 11:58:34;;;;;;;8.40;4.93;;;1.70;99.90;;;;;;5028039;28;20091;-44
2021/01/15 12:00:59;;;;;;;8.18;5.00;;;1.70;99.90;;;;;;5014610;28;20041;-42
2021/01/15 12:03:26;;;;;;;7.65;5.15;;;1.70;99.90;;;;;;5018529;28;20014;-42
2021/01/15 12:05:52;;;;;;;8.63;5.75;;;1.60;99.90;;;;;;5022247;28;20534;-45
2021/01/15 12:08:22;;;;;;;7.18;5.05;;;1.60;99.90;;;;;;5021218;28;20495;-44
2021/01/15 12:10:56;;;;;;;9.43;5.80;;;1.60;99.90;;;;;;5018565;28;20037;-42
2021/01/15 12:13:22;;;;;;;8.02;4.65;;;1.60;99.90;;;;;;5025217;28;20063;-42
2021/01/15 12:15:53;;;;;;;8.55;5.10;;;1.50;99.90;;;;;;5016864;28;20393;-44
2021/01/15 12:18:20;;;;;;;8.68;4.80;;;1.50;99.90;;;;;;5027161;28;20045;-47
2021/01/15 12:20:46;;;;;;;6.93;4.22;;;1.50;99.90;;;;;;5018364;28;20018;-42
2021/01/15 12:23:12;;;;;;;7.90;5.10;;;1.50;99.90;;;;;;5024296;28;20053;-43
2021/01/15 12:25:39;;;;;;;6.55;4.30;;;1.50;99.90;;;;;;5025909;28;20488;-42
2021/01/15 12:28:09;;;;;;;7.78;4.85;;;1.50;99.90;;;;;;5024575;28;20029;-42
2021/01/15 12:30:34;;;;;;;8.82;4.95;;;1.50;99.90;;;;;;5014823;28;20026;-44
2021/01/15 12:33:06;;;;;;;10.18;4.85;;;1.40;99.90;;;;;;5021371;28;20060;-42
2021/01/15 12:35:32;;;;;;;8.35;5.30;;;1.40;99.90;;;;;;5023158;28;20030;-42
2021/01/15 12:38:19;;;;;;;7.38;4.90;;;1.40;99.90;;;;;;5021538;28;20036;-42
2021/01/15 12:40:46;;;;;;;8.15;4.35;;;1.40;99.90;;;;;;5024969;28;20056;-41
2021/01/15 12:43:13;;;;;;;7.32;4.30;;;1.40;99.90;;;;;;5024977;28;20079;-42
2021/01/15 12:45:44;;;;;;;6.65;3.95;;;1.50;99.90;;;;;;5018160;28;20033;-43
2021/01/15 12:48:12;;;;;;;9.30;5.05;;;1.50;99.90;;;;;;5037191;28;20061;-44
2021/01/15 12:50:38;;;;;;;7.75;4.80;;;1.60;99.90;;;;;;5015973;28;20156;-41
2021/01/15 12:53:04;;;;;;;8.02;4.95;;;1.60;99.90;;;;;;5020283;28;20046;-42
2021/01/15 12:55:30;;;;;;;7.22;4.50;;;1.60;99.90;;;;;;5017729;28;20033;-44
2021/01/15 12:57:57;;;;;;;6.78;4.78;;;1.60;99.90;;;;;;5021623;28;20497;-45
2021/01/15 13:00:23;;;;;;;7.47;4.97;;;1.60;99.90;;;;;;5022720;28;20465;-44
2021/01/15 13:02:49;;;;;;;6.63;4.13;;;1.60;99.90;;;;;;5020074;28;20544;-45
2021/01/15 13:05:15;;;;;;;7.40;4.18;;;1.60;99.90;;;;;;5024082;28;20065;-44
2021/01/15 13:07:41;;;;;;;6.07;3.92;;;1.60;99.90;;;;;;5021902;28;20037;-46
2021/01/15 13:10:08;;;;;;;6.47;4.07;;;1.60;99.90;;;;;;5021648;28;20143;-44